Time;durP1;ratioP1;P1;durP2;ratioP2;P2;SDS_P1;SDS_P2;PMS_P1;PMS_P2;Temp;Humidity;BMP_temperature;BMP_pressure;BME280_temperature;BME280_humidity;BME280_pressure;Samples;Min_cycle;Max_cycle;Signal;HPM_P1;HPM_P2
2022/11/19 00:00:20;;;;;;;19.53;13.13;;;;;;;3.23;100.00;98299.97;5117460;27;20326;-80
2022/11/19 00:02:49;;;;;;;18.67;13.60;;;;;;;3.27;100.00;98298.06;5110847;28;20318;-81
2022/11/19 00:05:18;;;;;;;20.53;14.47;;;;;;;3.28;100.00;98298.00;5112050;28;20191;-81
2022/11/19 00:07:49;;;;;;;21.43;13.27;;;;;;;3.34;100.00;98295.06;5110978;28;20245;-81
2022/11/19 00:10:18;;;;;;;19.57;13.43;;;;;;;3.33;100.00;98300.38;5111968;28;20665;-81
2022/11/19 00:12:54;;;;;;;20.37;14.33;;;;;;;3.40;100.00;98305.25;5108996;28;20277;-81
2022/11/19 00:15:24;;;;;;;19.47;13.87;;;;;;;3.39;100.00;98292.25;5114697;28;20195;-81
2022/11/19 00:17:52;;;;;;;19.77;13.97;;;;;;;3.25;100.00;98299.91;5112108;28;20266;-81
2022/11/19 00:20:23;;;;;;;22.07;14.53;;;;;;;3.27;100.00;98296.28;5069760;28;20200;-81
2022/11/19 00:22:53;;;;;;;19.63;14.93;;;;;;;2.97;100.00;98295.97;5013300;28;20218;-81
2022/11/19 00:25:22;;;;;;;20.27;14.87;;;;;;;3.25;100.00;98297.28;5010709;28;20210;-81
2022/11/19 00:27:53;;;;;;;20.50;14.00;;;;;;;3.42;100.00;98298.16;5010666;28;20197;-81
2022/11/19 00:30:24;;;;;;;21.43;15.33;;;;;;;3.38;100.00;98308.88;5010873;28;20678;-81
2022/11/19 00:33:13;;;;;;;21.37;15.33;;;;;;;3.34;100.00;98316.00;5014327;28;20206;-80
2022/11/19 00:35:43;;;;;;;24.17;15.43;;;;;;;3.24;100.00;98306.06;5012915;28;20191;-80
2022/11/19 00:38:11;;;;;;;20.17;14.77;;;;;;;3.35;100.00;98309.00;5011662;28;20249;-81
2022/11/19 00:40:40;;;;;;;19.43;15.13;;;;;;;3.24;100.00;98303.44;5030702;28;20262;-81
2022/11/19 00:45:57;;;;;;;22.07;16.07;;;;;;;3.13;100.00;98304.81;5110032;28;20233;-81
2022/11/19 00:48:26;;;;;;;23.50;16.60;;;;;;;3.25;100.00;98313.00;5116011;27;20217;-81
2022/11/19 00:50:55;;;;;;;23.67;16.43;;;;;;;3.15;100.00;98309.97;5113940;27;20195;-81
2022/11/19 00:53:24;;;;;;;24.83;17.30;;;;;;;3.20;100.00;98312.38;5113327;28;20221;-81
2022/11/19 00:55:52;;;;;;;25.80;16.57;;;;;;;3.07;100.00;98306.84;5111233;27;20272;-81
2022/11/19 00:58:21;;;;;;;22.77;16.47;;;;;;;3.12;100.00;98312.75;5112152;28;20203;-81
2022/11/19 01:00:50;;;;;;;25.20;17.07;;;;;;;3.11;100.00;98311.88;5111260;28;20637;-81
2022/11/19 01:03:20;;;;;;;23.03;16.87;;;;;;;2.97;100.00;98314.28;5113936;27;20695;-81
2022/11/19 01:05:49;;;;;;;24.27;16.97;;;;;;;3.16;100.00;98312.50;5102013;28;20206;-81
2022/11/19 01:08:17;;;;;;;26.47;17.87;;;;;;;3.05;100.00;98312.16;5111708;28;20211;-81
2022/11/19 01:10:47;;;;;;;24.90;17.50;;;;;;;2.98;100.00;98313.38;5114289;28;20641;-81
2022/11/19 01:16:02;;;;;;;26.30;17.97;;;;;;;3.19;100.00;98329.00;5115351;28;20187;-81
2022/11/19 01:18:32;;;;;;;25.17;18.57;;;;;;;3.11;100.00;98327.59;5110601;28;20222;-81
2022/11/19 01:21:05;;;;;;;27.33;18.20;;;;;;;2.96;100.00;98324.84;5117257;28;20191;-81
2022/11/19 01:23:34;;;;;;;28.10;19.10;;;;;;;3.02;100.00;98327.16;5121402;28;20218;-81
2022/11/19 01:26:03;;;;;;;25.47;18.50;;;;;;;3.26;100.00;98339.06;5117296;28;20235;-81
2022/11/19 01:28:32;;;;;;;27.23;18.67;;;;;;;3.27;100.00;98340.78;5110440;28;20187;-81
2022/11/19 01:31:01;;;;;;;26.83;18.47;;;;;;;3.26;100.00;98336.47;5113578;28;20781;-80
2022/11/19 01:33:29;;;;;;;27.97;19.63;;;;;;;2.94;100.00;98343.22;5117093;27;20229;-80
2022/11/19 01:36:01;;;;;;;27.67;19.40;;;;;;;3.19;100.00;98342.94;5112118;28;20202;-80
2022/11/19 01:38:31;;;;;;;31.37;19.27;;;;;;;3.08;100.00;98346.03;5115678;28;20191;-80
2022/11/19 01:41:01;;;;;;;29.17;20.83;;;;;;;2.95;100.00;98346.69;5121312;28;20207;-82
2022/11/19 01:43:44;;;;;;;28.13;20.07;;;;;;;2.86;100.00;98346.19;5114577;28;20226;-80
2022/11/19 01:46:15;;;;;;;29.80;21.03;;;;;;;2.77;100.00;98348.38;5090024;28;20218;-80
2022/11/19 01:48:47;;;;;;;30.33;19.97;;;;;;;2.95;100.00;98368.44;5111347;28;20191;-79
2022/11/19 01:51:23;;;;;;;28.43;19.47;;;;;;;2.76;100.00;98363.19;5113291;28;20213;-79
2022/11/19 01:53:54;;;;;;;29.27;20.30;;;;;;;2.76;100.00;98360.59;5112386;28;20220;-79
2022/11/19 01:56:24;;;;;;;33.60;21.47;;;;;;;2.65;100.00;98364.59;5118456;28;20194;-78
2022/11/19 01:58:58;;;;;;;31.43;22.13;;;;;;;2.64;100.00;98369.00;5114693;28;20252;-79
2022/11/19 02:01:28;;;;;;;32.33;22.37;;;;;;;2.26;100.00;98373.28;5113452;28;20194;-78
2022/11/19 02:04:03;;;;;;;32.67;23.00;;;;;;;2.45;100.00;98375.94;5116007;27;20215;-78
2022/11/19 02:06:33;;;;;;;32.83;22.53;;;;;;;2.36;100.00;98369.34;5112515;28;20247;-78
2022/11/19 02:09:02;;;;;;;34.10;22.20;;;;;;;2.33;100.00;98376.50;5111642;28;20201;-78
2022/11/19 02:11:58;;;;;;;31.43;21.63;;;;;;;2.49;100.00;98385.34;5072376;28;20638;-79
2022/11/19 02:15:11;;;;;;;33.50;21.83;;;;;;;2.50;100.00;98387.03;5113670;28;20191;-78
2022/11/19 02:17:52;;;;;;;34.37;22.53;;;;;;;2.25;100.00;98388.13;5107366;28;20195;-78
2022/11/19 02:20:44;;;;;;;33.30;21.67;;;;;;;2.32;100.00;98385.22;5057467;28;20217;-78
2022/11/19 02:23:45;;;;;;;35.80;23.63;;;;;;;2.31;100.00;98389.59;5107345;28;20267;-79
2022/11/19 02:26:43;;;;;;;33.00;22.90;;;;;;;2.10;100.00;98393.97;5060208;28;20199;-79
2022/11/19 02:29:28;;;;;;;34.70;22.60;;;;;;;2.40;100.00;98388.34;5090214;28;20195;-78
2022/11/19 02:32:06;;;;;;;32.40;22.30;;;;;;;2.18;100.00;98386.66;5072656;28;20210;-78
2022/11/19 02:34:42;;;;;;;30.17;21.00;;;;;;;2.22;100.00;98390.88;5102914;28;20733;-78
2022/11/19 02:37:15;;;;;;;31.33;21.93;;;;;;;2.23;100.00;98389.09;5109698;28;20645;-78
2022/11/19 02:39:48;;;;;;;34.10;23.17;;;;;;;2.08;100.00;98392.34;5113268;28;20191;-78
2022/11/19 02:42:24;;;;;;;30.80;21.17;;;;;;;2.19;100.00;98395.34;5110386;28;20234;-78
2022/11/19 02:44:58;;;;;;;32.03;21.07;;;;;;;2.41;100.00;98392.66;5113330;28;20198;-78
2022/11/19 02:47:32;;;;;;;32.93;21.80;;;;;;;2.30;100.00;98386.13;5113338;28;20223;-78
2022/11/19 02:50:06;;;;;;;33.03;21.67;;;;;;;2.46;100.00;98396.78;5112028;28;20233;-78
2022/11/19 02:52:36;;;;;;;31.80;21.80;;;;;;;2.22;100.00;98403.03;5091088;28;20237;-78
2022/11/19 02:55:06;;;;;;;33.47;22.50;;;;;;;2.18;100.00;98402.34;5085478;28;20195;-78
2022/11/19 02:57:38;;;;;;;31.63;21.80;;;;;;;2.19;100.00;98397.97;5089425;28;20191;-78
2022/11/19 03:05:52;;;;;;;30.50;20.70;;;;;;;2.25;100.00;98410.78;5089619;28;20237;-78
2022/11/19 03:08:24;;;;;;;33.27;21.87;;;;;;;2.03;100.00;98413.44;5090967;28;20195;-78
2022/11/19 03:11:03;;;;;;;32.20;21.67;;;;;;;2.10;100.00;98409.66;5039048;28;20208;-79
2022/11/19 03:16:41;;;;;;;30.83;20.53;;;;;;;2.33;100.00;98407.84;5010707;28;20198;-78
2022/11/19 03:19:20;;;;;;;32.17;20.33;;;;;;;2.07;100.00;98412.41;5010069;28;20241;-78
2022/11/19 03:21:55;;;;;;;28.27;18.87;;;;;;;2.17;100.00;98413.72;5007473;28;20322;-78
2022/11/19 03:24:28;;;;;;;32.13;20.40;;;;;;;1.95;100.00;98405.94;5008125;28;20222;-78
2022/11/19 03:27:03;;;;;;;28.90;19.67;;;;;;;2.09;100.00;98407.09;4949502;28;20188;-78
2022/11/19 03:29:35;;;;;;;30.03;20.33;;;;;;;2.13;100.00;98413.91;4962190;28;20226;-78
2022/11/19 03:32:11;;;;;;;29.43;20.87;;;;;;;2.05;100.00;98413.38;4971904;28;20216;-78
2022/11/19 03:34:45;;;;;;;31.87;21.43;;;;;;;1.92;100.00;98413.00;4955573;28;20208;-78
2022/11/19 03:37:17;;;;;;;33.13;21.07;;;;;;;1.86;100.00;98416.75;4960995;28;20240;-78
2022/11/19 03:39:50;;;;;;;29.87;20.63;;;;;;;1.96;100.00;98414.59;5014303;28;20218;-78
2022/11/19 03:42:21;;;;;;;30.47;20.83;;;;;;;2.11;100.00;98411.34;5011753;28;20288;-79
2022/11/19 03:44:57;;;;;;;33.53;21.40;;;;;;;1.87;100.00;98414.97;5034081;28;20248;-78
2022/11/19 03:47:33;;;;;;;31.03;20.37;;;;;;;2.22;100.00;98416.09;5076544;28;20192;-78
2022/11/19 03:50:07;;;;;;;30.83;19.77;;;;;;;2.15;100.00;98414.69;5114079;28;20630;-78
2022/11/19 03:52:35;;;;;;;31.67;21.30;;;;;;;1.93;100.00;98418.22;5081261;28;20207;-78
2022/11/19 03:55:05;;;;;;;28.60;18.97;;;;;;;1.93;100.00;98422.53;5116587;27;20195;-77
2022/11/19 03:57:40;;;;;;;32.87;19.93;;;;;;;1.97;100.00;98421.53;5077861;28;20195;-78
2022/11/19 04:00:10;;;;;;;29.80;20.47;;;;;;;1.95;100.00;98428.56;5115891;28;20206;-78
2022/11/19 04:02:38;;;;;;;30.23;19.27;;;;;;;2.01;100.00;98423.94;5114220;28;20247;-78
2022/11/19 04:05:10;;;;;;;28.67;18.63;;;;;;;1.99;100.00;98437.97;5108574;28;20279;-78
2022/11/19 04:07:39;;;;;;;30.17;19.90;;;;;;;1.95;100.00;98426.81;5113513;28;20199;-78
2022/11/19 04:10:08;;;;;;;29.53;19.80;;;;;;;1.94;100.00;98432.09;5112290;28;20188;-78
2022/11/19 04:12:37;;;;;;;28.57;19.00;;;;;;;2.07;100.00;98435.91;5116038;28;20195;-78
2022/11/19 04:15:07;;;;;;;30.20;19.63;;;;;;;2.21;100.00;98433.56;5116053;28;20195;-78
2022/11/19 04:17:35;;;;;;;29.07;20.23;;;;;;;1.96;100.00;98438.09;5112617;28;20255;-78
2022/11/19 04:20:10;;;;;;;31.47;20.33;;;;;;;2.02;100.00;98435.22;5106054;28;20199;-78
2022/11/19 04:22:39;;;;;;;29.17;19.60;;;;;;;2.06;100.00;98441.19;5093136;28;20747;-78
2022/11/19 04:25:08;;;;;;;29.60;19.63;;;;;;;1.98;100.00;98449.34;5088509;28;20212;-78
2022/11/19 04:27:37;;;;;;;30.60;19.07;;;;;;;2.10;100.00;98441.00;5090630;28;20195;-78
2022/11/19 04:30:07;;;;;;;27.37;17.90;;;;;;;2.05;100.00;98439.50;5088033;28;20257;-78
2022/11/19 04:32:35;;;;;;;29.20;18.63;;;;;;;2.10;100.00;98437.53;5093138;28;20262;-78
2022/11/19 04:35:10;;;;;;;28.97;18.37;;;;;;;2.16;100.00;98442.50;5089151;28;20215;-78
2022/11/19 04:37:39;;;;;;;28.90;17.90;;;;;;;2.18;100.00;98438.06;5085459;28;20199;-78
2022/11/19 04:40:09;;;;;;;25.97;17.27;;;;;;;2.01;100.00;98447.44;5050350;28;20193;-78
2022/11/19 04:42:38;;;;;;;27.30;17.77;;;;;;;2.05;100.00;98456.00;5111488;28;20653;-78
2022/11/19 04:45:08;;;;;;;25.13;17.50;;;;;;;2.17;100.00;98447.66;5114848;28;20238;-78
2022/11/19 04:47:37;;;;;;;28.03;17.67;;;;;;;2.21;100.00;98445.75;5114451;28;20224;-78
2022/11/19 04:50:06;;;;;;;28.37;18.43;;;;;;;2.27;100.00;98448.97;5109106;28;20191;-78
2022/11/19 04:52:36;;;;;;;28.40;18.57;;;;;;;2.37;100.00;98451.19;5115022;28;20187;-77
2022/11/19 04:55:09;;;;;;;27.67;17.90;;;;;;;2.30;100.00;98453.22;5112933;28;20195;-77
2022/11/19 04:57:38;;;;;;;26.83;17.43;;;;;;;2.36;100.00;98452.97;5112316;28;20191;-77
2022/11/19 05:00:08;;;;;;;27.50;17.93;;;;;;;2.23;100.00;98457.03;5114993;27;20247;-77
2022/11/19 05:02:36;;;;;;;28.23;17.67;;;;;;;2.00;100.00;98455.34;5114992;28;20187;-78
2022/11/19 05:05:05;;;;;;;28.40;17.87;;;;;;;2.18;100.00;98456.34;5113684;28;20242;-77
2022/11/19 05:07:33;;;;;;;26.83;17.30;;;;;;;2.27;100.00;98445.50;5091427;28;20259;-78
2022/11/19 05:10:04;;;;;;;27.67;18.20;;;;;;;2.37;100.00;98453.81;5115042;28;20194;-78
2022/11/19 05:12:32;;;;;;;26.60;17.30;;;;;;;2.25;100.00;98449.97;5112844;28;20187;-78
2022/11/19 05:15:01;;;;;;;25.43;16.93;;;;;;;2.12;100.00;98457.44;5114972;28;20191;-79
2022/11/19 05:17:29;;;;;;;24.27;16.10;;;;;;;2.29;100.00;98462.81;5112318;28;20236;-79
2022/11/19 05:19:59;;;;;;;24.97;16.83;;;;;;;2.27;100.00;98462.03;5110626;28;20292;-80
2022/11/19 05:22:27;;;;;;;26.37;17.63;;;;;;;2.22;100.00;98456.19;5116200;27;20213;-79
2022/11/19 05:24:55;;;;;;;27.60;17.30;;;;;;;2.08;100.00;98462.88;5118124;28;20218;-79
2022/11/19 05:27:26;;;;;;;25.47;16.93;;;;;;;2.24;100.00;98466.56;5108955;28;20191;-79
2022/11/19 05:29:54;;;;;;;29.20;17.53;;;;;;;2.13;100.00;98466.16;5112336;28;20209;-79
2022/11/19 05:32:23;;;;;;;27.13;16.97;;;;;;;2.14;100.00;98466.09;5110923;28;20199;-78
2022/11/19 05:34:51;;;;;;;28.47;17.63;;;;;;;2.38;100.00;98466.81;5111358;28;20195;-79
2022/11/19 05:37:20;;;;;;;26.03;16.87;;;;;;;2.49;100.00;98461.13;5113104;28;20187;-78
2022/11/19 05:39:48;;;;;;;25.43;16.63;;;;;;;2.49;100.00;98467.19;5114112;28;20187;-78
2022/11/19 05:42:16;;;;;;;29.03;18.57;;;;;;;2.55;100.00;98473.94;5111978;28;20199;-79
2022/11/19 05:44:47;;;;;;;26.77;17.27;;;;;;;2.49;100.00;98477.66;5108902;28;20211;-78
2022/11/19 05:47:16;;;;;;;25.90;17.27;;;;;;;2.33;100.00;98483.63;5109614;28;20195;-78
2022/11/19 05:49:44;;;;;;;27.97;16.40;;;;;;;2.39;100.00;98480.72;5115360;27;20199;-78
2022/11/19 05:52:13;;;;;;;27.83;17.23;;;;;;;2.29;100.00;98480.25;5110371;28;20203;-78
2022/11/19 05:54:41;;;;;;;29.13;17.80;;;;;;;2.25;100.00;98482.16;5112853;28;20234;-78
2022/11/19 05:57:10;;;;;;;27.40;17.07;;;;;;;2.22;100.00;98484.03;5070669;28;20192;-78
2022/11/19 05:59:38;;;;;;;28.57;16.87;;;;;;;2.20;100.00;98481.47;5071479;28;20325;-79
2022/11/19 06:02:12;;;;;;;29.80;17.17;;;;;;;2.24;100.00;98480.47;5071387;28;20212;-78
2022/11/19 06:04:40;;;;;;;24.57;17.63;;;;;;;2.15;100.00;98480.00;5062653;28;20304;-78
2022/11/19 06:07:10;;;;;;;23.53;15.73;;;;;;;2.13;100.00;98479.22;5071105;28;20230;-78
2022/11/19 06:09:38;;;;;;;25.10;16.20;;;;;;;2.13;100.00;98485.28;5071175;28;20222;-79
2022/11/19 06:12:07;;;;;;;25.90;16.33;;;;;;;2.24;100.00;98490.06;5069237;28;20192;-78
2022/11/19 06:14:35;;;;;;;25.07;16.43;;;;;;;2.20;100.00;98494.53;5068416;28;20246;-77
2022/11/19 06:17:04;;;;;;;25.43;17.03;;;;;;;2.17;100.00;98496.44;5067208;28;20216;-78
2022/11/19 06:19:35;;;;;;;25.93;15.60;;;;;;;2.08;100.00;98510.72;5069855;28;20249;-78
2022/11/19 06:22:04;;;;;;;25.67;15.77;;;;;;;2.10;100.00;98521.09;5090411;28;20195;-78
2022/11/19 06:24:34;;;;;;;24.80;16.87;;;;;;;2.29;100.00;98522.06;5108438;28;20210;-78
2022/11/19 06:27:02;;;;;;;31.03;18.53;;;;;;;2.19;100.00;98521.59;5110891;28;20232;-78
2022/11/19 06:29:30;;;;;;;29.63;18.70;;;;;;;2.02;100.00;98524.00;5112625;28;20198;-78
2022/11/19 06:31:59;;;;;;;39.00;23.93;;;;;;;1.77;100.00;98521.53;5113544;28;20240;-78
2022/11/19 06:34:27;;;;;;;44.10;25.33;;;;;;;1.92;100.00;98525.28;5108217;28;20259;-78
2022/11/19 06:36:57;;;;;;;80.33;40.07;;;;;;;1.71;100.00;98524.38;5106681;28;20187;-78
2022/11/19 06:39:26;;;;;;;124.77;60.77;;;;;;;1.89;100.00;98533.25;5105737;28;20206;-78
2022/11/19 06:42:34;;;;;;;131.97;65.17;;;;;;;1.75;100.00;98532.94;5108061;28;20198;-78
2022/11/19 06:44:42;;;;;;;75.17;40.80;;;;;;;1.71;100.00;98525.22;5111295;28;20214;-78
2022/11/19 06:47:11;;;;;;;73.03;39.43;;;;;;;1.86;100.00;98538.59;5108818;28;20231;-78
2022/11/19 06:49:39;;;;;;;46.70;27.07;;;;;;;1.82;100.00;98534.41;5105046;28;20232;-78
2022/11/19 06:52:09;;;;;;;32.43;20.17;;;;;;;1.74;100.00;98526.88;5105889;28;20194;-78
2022/11/19 06:54:37;;;;;;;27.80;17.50;;;;;;;1.58;100.00;98541.41;5105789;28;20244;-78
2022/11/19 06:57:10;;;;;;;31.80;18.23;;;;;;;1.78;100.00;98533.66;5107824;28;20195;-78
2022/11/19 06:59:39;;;;;;;28.87;19.03;;;;;;;1.54;100.00;98540.66;5113482;28;20195;-78
2022/11/19 07:02:08;;;;;;;27.97;16.87;;;;;;;1.64;100.00;98542.03;5108605;28;20245;-78
2022/11/19 07:04:36;;;;;;;28.83;18.07;;;;;;;1.47;100.00;98548.78;5112093;28;20203;-78
2022/11/19 07:07:05;;;;;;;26.73;16.97;;;;;;;1.57;100.00;98544.94;5113444;28;20191;-78
2022/11/19 07:09:35;;;;;;;27.40;16.57;;;;;;;1.70;100.00;98554.00;5114315;28;20203;-79
2022/11/19 07:12:04;;;;;;;27.00;17.80;;;;;;;1.71;100.00;98553.94;5115801;28;20279;-78
2022/11/19 07:14:33;;;;;;;30.90;18.50;;;;;;;1.86;100.00;98549.91;5111288;28;20225;-78
2022/11/19 07:17:01;;;;;;;29.20;17.60;;;;;;;1.65;100.00;98556.78;5101404;27;20199;-79
2022/11/19 07:19:30;;;;;;;26.47;17.00;;;;;;;1.72;100.00;98558.25;5113838;27;20203;-79
2022/11/19 07:21:58;;;;;;;30.20;18.13;;;;;;;1.69;100.00;98554.91;5119772;27;20259;-79
2022/11/19 07:24:27;;;;;;;27.17;17.17;;;;;;;1.53;100.00;98564.22;5111537;28;20199;-78
2022/11/19 07:26:57;;;;;;;31.00;17.57;;;;;;;1.58;100.00;98570.97;5116658;28;20213;-78
2022/11/19 07:29:25;;;;;;;26.20;16.90;;;;;;;1.68;100.00;98563.66;5117129;28;20191;-78
2022/11/19 07:31:54;;;;;;;28.77;17.77;;;;;;;1.42;100.00;98569.81;5071423;28;21129;-79
2022/11/19 07:34:22;;;;;;;27.37;18.10;;;;;;;1.32;100.00;98561.47;5069091;28;20200;-78
2022/11/19 07:36:52;;;;;;;29.00;17.43;;;;;;;1.37;100.00;98566.56;5074289;28;20655;-78
2022/11/19 07:39:21;;;;;;;28.27;17.03;;;;;;;1.48;100.00;98576.59;5067459;28;20188;-78
2022/11/19 07:44:37;;;;;;;26.33;17.33;;;;;;;1.51;100.00;98574.72;5074097;28;20211;-78
2022/11/19 07:47:07;;;;;;;39.87;25.23;;;;;;;1.44;100.00;98576.69;5069012;28;20216;-78
2022/11/19 07:49:35;;;;;;;34.27;23.10;;;;;;;1.44;100.00;98576.69;5064678;28;20226;-78
2022/11/19 07:52:05;;;;;;;29.23;19.00;;;;;;;1.36;100.00;98570.06;5069555;28;20200;-78
2022/11/19 07:54:33;;;;;;;35.93;23.37;;;;;;;1.44;100.00;98573.22;5067973;28;20243;-78
2022/11/19 07:57:02;;;;;;;34.00;21.50;;;;;;;1.67;100.00;98575.00;5102998;28;20642;-78
2022/11/19 07:59:30;;;;;;;42.50;30.03;;;;;;;1.73;100.00;98583.44;5114771;28;20187;-79
2022/11/19 08:02:00;;;;;;;31.90;19.20;;;;;;;1.66;100.00;98592.41;5116531;28;20195;-78
2022/11/19 08:04:29;;;;;;;28.83;19.77;;;;;;;1.68;100.00;98592.34;5110692;28;20213;-78
2022/11/19 08:06:58;;;;;;;31.73;20.57;;;;;;;1.71;100.00;98587.00;5118541;27;20222;-78
2022/11/19 08:09:27;;;;;;;38.40;24.00;;;;;;;1.67;100.00;98588.06;5118761;27;20209;-80
2022/11/19 08:11:56;;;;;;;31.23;20.23;;;;;;;1.72;100.00;98589.56;5112614;28;20218;-78
2022/11/19 08:14:24;;;;;;;37.67;24.20;;;;;;;1.62;100.00;98588.19;5116099;28;20187;-78
2022/11/19 08:19:40;;;;;;;30.23;18.70;;;;;;;1.55;100.00;98591.97;5116697;27;20222;-78
2022/11/19 08:22:10;;;;;;;30.70;19.20;;;;;;;1.71;100.00;98587.88;5115954;28;20194;-78
2022/11/19 08:24:38;;;;;;;32.03;20.77;;;;;;;1.64;100.00;98588.13;5115835;28;20222;-78
2022/11/19 08:27:07;;;;;;;31.57;18.93;;;;;;;1.61;100.00;98590.88;5115420;28;20219;-78
2022/11/19 08:29:35;;;;;;;34.87;20.97;;;;;;;1.65;100.00;98592.47;5111353;28;20191;-78
2022/11/19 08:32:03;;;;;;;28.17;17.00;;;;;;;1.81;100.00;98597.97;5117046;28;20219;-78
2022/11/19 08:34:33;;;;;;;30.73;19.57;;;;;;;1.77;100.00;98592.00;5115044;28;20225;-78
2022/11/19 08:37:02;;;;;;;29.70;18.23;;;;;;;1.73;100.00;98593.03;5060386;28;20199;-78
2022/11/19 08:39:31;;;;;;;29.63;18.07;;;;;;;1.63;100.00;98589.06;5092904;28;20196;-78
2022/11/19 08:44:45;;;;;;;25.77;16.17;;;;;;;1.70;100.00;98607.03;5093329;28;20230;-78
2022/11/19 08:47:14;;;;;;;28.57;18.00;;;;;;;1.58;100.00;98617.94;5087710;28;20212;-78
2022/11/19 08:49:44;;;;;;;27.57;17.67;;;;;;;1.65;100.00;98603.78;5090284;28;20296;-78
2022/11/19 08:52:17;;;;;;;27.77;17.00;;;;;;;1.77;100.00;98604.22;5087412;28;20196;-78
2022/11/19 08:54:46;;;;;;;25.43;17.47;;;;;;;1.67;100.00;98608.94;5090850;28;20188;-78
2022/11/19 08:57:14;;;;;;;26.43;17.63;;;;;;;1.76;100.00;98607.75;5089173;28;20284;-78
2022/11/19 08:59:42;;;;;;;24.47;15.93;;;;;;;1.94;100.00;98612.28;5092946;28;20270;-78
2022/11/19 09:02:11;;;;;;;29.73;18.60;;;;;;;1.77;100.00;98619.88;5083413;28;20191;-78
2022/11/19 09:04:40;;;;;;;24.60;16.63;;;;;;;1.60;100.00;98616.13;5108733;28;20243;-78
2022/11/19 09:07:09;;;;;;;29.50;18.87;;;;;;;1.80;100.00;98619.75;5117200;28;20236;-78
2022/11/19 09:09:39;;;;;;;25.00;18.03;;;;;;;1.68;100.00;98610.63;5117223;28;20191;-79
2022/11/19 09:12:09;;;;;;;30.10;19.93;;;;;;;1.85;100.00;98607.41;5052639;28;20757;-79
2022/11/19 09:14:37;;;;;;;23.43;16.07;;;;;;;1.76;100.00;98610.34;5015680;28;20652;-79
2022/11/19 09:17:07;;;;;;;27.37;16.67;;;;;;;2.06;100.00;98613.56;5052207;28;20223;-78
2022/11/19 09:19:36;;;;;;;25.97;17.87;;;;;;;1.72;100.00;98612.22;5050843;28;20254;-79
2022/11/19 09:22:05;;;;;;;29.17;18.03;;;;;;;2.11;100.00;98604.63;5049553;28;20232;-78
2022/11/19 09:24:33;;;;;;;30.03;17.60;;;;;;;2.17;100.00;98617.44;5049521;28;20205;-78
2022/11/19 09:27:03;;;;;;;22.50;15.57;;;;;;;2.22;100.00;98632.94;5045250;28;20224;-78
2022/11/19 09:29:32;;;;;;;27.27;18.27;;;;;;;2.52;100.00;98625.69;5052111;28;20197;-78
2022/11/19 09:32:02;;;;;;;25.60;15.67;;;;;;;2.41;100.00;98627.84;5042104;28;20255;-77
2022/11/19 09:34:31;;;;;;;24.63;16.27;;;;;;;2.35;100.00;98633.31;5018177;28;20298;-78
2022/11/19 09:37:00;;;;;;;21.67;14.27;;;;;;;2.34;100.00;98632.47;5082709;28;20195;-78
2022/11/19 09:39:28;;;;;;;23.03;14.93;;;;;;;2.22;100.00;98638.16;5112959;27;20231;-78
2022/11/19 09:42:11;;;;;;;20.47;14.83;;;;;;;2.38;100.00;98639.28;5116820;27;20195;-78
2022/11/19 09:44:54;;;;;;;21.80;14.70;;;;;;;2.39;100.00;98637.50;5114554;28;20260;-78
2022/11/19 09:47:34;;;;;;;21.07;14.57;;;;;;;2.68;100.00;98639.81;5112624;28;20210;-78
2022/11/19 09:50:12;;;;;;;22.10;15.20;;;;;;;2.57;100.00;98644.63;5109229;28;20649;-80
2022/11/19 09:52:46;;;;;;;21.10;13.97;;;;;;;2.96;100.00;98639.53;5114260;28;20203;-77
2022/11/19 09:55:19;;;;;;;25.03;15.00;;;;;;;2.91;100.00;98636.28;5078354;28;20233;-80
2022/11/19 09:57:53;;;;;;;22.07;14.60;;;;;;;2.77;100.00;98631.59;5111269;28;20219;-77
2022/11/19 10:00:23;;;;;;;20.07;13.70;;;;;;;2.48;100.00;98638.00;5113713;28;20246;-77
2022/11/19 10:02:52;;;;;;;18.37;12.57;;;;;;;2.60;100.00;98631.41;5113834;28;20226;-77
2022/11/19 10:05:37;;;;;;;17.30;12.37;;;;;;;2.57;100.00;98637.63;5109283;28;20201;-77
2022/11/19 10:08:20;;;;;;;16.00;11.80;;;;;;;2.70;100.00;98640.63;5111726;28;20276;-78
2022/11/19 10:10:59;;;;;;;19.77;12.40;;;;;;;2.74;100.00;98639.56;5112988;27;20630;-78
2022/11/19 10:13:43;;;;;;;17.90;12.30;;;;;;;2.61;100.00;98638.38;5113317;27;20191;-78
2022/11/19 10:16:28;;;;;;;19.53;12.60;;;;;;;2.69;100.00;98641.50;5113903;28;20194;-80
2022/11/19 10:19:05;;;;;;;17.20;12.53;;;;;;;2.95;100.00;98636.97;5113162;28;20224;-80
2022/11/19 10:21:44;;;;;;;18.40;11.77;;;;;;;2.84;100.00;98637.44;5113734;28;20221;-79
2022/11/19 10:24:16;;;;;;;16.47;11.40;;;;;;;2.63;100.00;98627.84;5113313;28;20187;-80
2022/11/19 10:26:52;;;;;;;17.43;12.07;;;;;;;2.87;100.00;98643.38;5111969;28;20211;-80
2022/11/19 10:29:27;;;;;;;16.20;11.10;;;;;;;2.88;100.00;98644.22;5113873;28;20183;-81
2022/11/19 10:32:17;;;;;;;17.67;12.67;;;;;;;2.80;100.00;98638.47;5113380;28;20291;-80
2022/11/19 10:34:46;;;;;;;17.10;11.77;;;;;;;3.17;100.00;98638.63;5113625;28;20241;-81
2022/11/19 10:37:19;;;;;;;18.23;11.60;;;;;;;3.17;100.00;98629.94;5116192;27;20214;-79
2022/11/19 10:39:53;;;;;;;16.60;11.60;;;;;;;2.84;100.00;98634.81;5114060;28;20232;-81
2022/11/19 10:42:28;;;;;;;17.77;12.37;;;;;;;2.98;100.00;98621.16;5112316;28;20198;-81
2022/11/19 10:45:01;;;;;;;19.80;12.67;;;;;;;3.15;100.00;98630.00;5109365;28;20195;-79
2022/11/19 10:47:39;;;;;;;14.40;10.93;;;;;;;3.16;100.00;98630.84;5113862;28;20211;-81
2022/11/19 10:50:17;;;;;;;16.37;11.80;;;;;;;3.12;100.00;98629.28;5112338;28;20190;-78
2022/11/19 10:52:52;;;;;;;18.03;12.13;;;;;;;3.05;100.00;98627.84;5113390;28;20194;-80
2022/11/19 10:55:24;;;;;;;14.33;10.83;;;;;;;3.26;100.00;98616.44;5110702;28;20198;-80
2022/11/19 10:58:05;;;;;;;16.60;11.53;;;;;;;3.29;100.00;98620.72;5114266;28;20195;-80
2022/11/19 11:00:37;;;;;;;15.83;11.50;;;;;;;3.11;100.00;98617.97;5117289;28;20186;-80
2022/11/19 11:03:19;;;;;;;15.60;11.77;;;;;;;3.05;100.00;98618.22;5117788;28;20199;-81
2022/11/19 11:05:57;;;;;;;14.47;10.87;;;;;;;2.74;100.00;98616.03;5109227;28;20187;-81
2022/11/19 11:08:26;;;;;;;15.53;11.13;;;;;;;2.66;100.00;98614.66;5113133;28;20249;-81
2022/11/19 11:10:55;;;;;;;14.77;11.13;;;;;;;2.74;100.00;98626.50;5108805;28;20188;-81
2022/11/19 11:16:20;;;;;;;16.50;11.40;;;;;;;2.91;100.00;98617.97;5113267;28;20195;-81
2022/11/19 11:18:49;;;;;;;16.73;11.40;;;;;;;2.76;100.00;98611.59;5115706;27;20202;-81
2022/11/19 11:21:41;;;;;;;14.93;10.97;;;;;;;3.00;100.00;98614.13;5110277;28;20799;-81
2022/11/19 11:24:12;;;;;;;17.73;12.50;;;;;;;3.07;100.00;98608.53;5106346;28;20688;-82
2022/11/19 11:26:41;;;;;;;15.27;11.57;;;;;;;3.12;100.00;98619.66;5108047;28;20226;-81
2022/11/19 11:29:25;;;;;;;16.53;11.97;;;;;;;3.33;100.00;98611.81;5112072;28;20199;-81
2022/11/19 11:31:55;;;;;;;15.23;10.67;;;;;;;3.16;100.00;98599.44;5109117;28;20284;-81
2022/11/19 11:34:33;;;;;;;13.63;10.73;;;;;;;2.85;100.00;98610.38;5111954;28;20198;-80
2022/11/19 11:37:03;;;;;;;16.50;11.57;;;;;;;2.68;100.00;98611.06;5112114;28;20654;-81
2022/11/19 11:39:36;;;;;;;13.67;9.83;;;;;;;2.97;100.00;98617.69;5113266;28;20247;-81
2022/11/19 11:42:10;;;;;;;14.67;9.70;;;;;;;3.08;100.00;98614.63;5090844;28;20233;-81
2022/11/19 11:44:51;;;;;;;17.73;10.97;;;;;;;3.17;100.00;98611.59;5090734;28;20188;-81
2022/11/19 11:47:25;;;;;;;14.83;10.73;;;;;;;3.14;100.00;98607.38;5086176;28;20222;-81
2022/11/19 11:50:04;;;;;;;15.20;10.50;;;;;;;2.94;100.00;98606.50;5088223;28;20195;-81
2022/11/19 11:52:37;;;;;;;14.97;10.33;;;;;;;3.08;100.00;98610.22;5090614;28;20397;-81
2022/11/19 11:55:09;;;;;;;14.67;10.17;;;;;;;3.35;100.00;98613.44;5091278;28;20194;-81
2022/11/19 11:57:51;;;;;;;15.43;11.53;;;;;;;3.17;100.00;98609.84;5093941;28;20227;-81
2022/11/19 12:00:35;;;;;;;17.50;12.17;;;;;;;3.05;100.00;98604.28;5092676;28;20200;-81
2022/11/19 12:03:07;;;;;;;14.73;11.00;;;;;;;2.79;100.00;98608.00;5053631;28;20189;-81